createdAt,value
2018-12-10T00:01:05.892Z,2.30
2018-12-10T00:03:34.614Z,5.22
2018-12-10T00:06:02.016Z,4.47
2018-12-10T00:08:29.295Z,3.80
2018-12-10T00:10:56.660Z,5.45
2018-12-10T00:13:23.987Z,6.92
2018-12-10T00:15:51.244Z,7.28
2018-12-10T00:18:18.615Z,4.80
2018-12-10T00:20:45.928Z,4.25
2018-12-10T00:23:13.335Z,3.20
2018-12-10T00:25:40.665Z,3.17
2018-12-10T00:28:08.142Z,2.65
2018-12-10T00:30:35.467Z,2.98
2018-12-10T00:33:02.805Z,3.42
2018-12-10T00:35:30.122Z,2.35
2018-12-10T00:37:57.469Z,6.17
2018-12-10T00:40:24.839Z,3.25
2018-12-10T00:42:52.051Z,3.12
2018-12-10T00:45:19.411Z,2.87
2018-12-10T00:47:46.847Z,3.83
2018-12-10T00:50:14.173Z,6.15
2018-12-10T00:52:41.543Z,7.25
2018-12-10T00:55:08.871Z,2.30
2018-12-10T00:57:36.100Z,3.90
2018-12-10T01:00:03.894Z,3.30
2018-12-10T01:02:31.228Z,2.92
2018-12-10T01:04:58.548Z,2.98
2018-12-10T01:07:25.895Z,3.55
2018-12-10T01:09:53.379Z,2.00
2018-12-10T01:12:20.626Z,1.77
2018-12-10T01:14:47.884Z,1.87
2018-12-10T01:17:15.215Z,3.80
2018-12-10T01:19:42.571Z,5.87
2018-12-10T01:22:09.913Z,1.85
2018-12-10T01:24:37.257Z,3.80
2018-12-10T01:27:04.580Z,1.90
2018-12-10T01:29:32.039Z,2.52
2018-12-10T01:31:59.248Z,2.10
2018-12-10T01:34:26.591Z,3.47
2018-12-10T01:36:54.059Z,3.85
2018-12-10T01:39:21.271Z,3.25
2018-12-10T01:41:48.721Z,1.52
2018-12-10T01:44:16.064Z,2.05
2018-12-10T01:46:43.578Z,8.43
2018-12-10T01:49:10.939Z,1.85
2018-12-10T01:51:38.322Z,4.00
2018-12-10T01:54:05.659Z,2.40
2018-12-10T01:56:32.911Z,1.80
2018-12-10T01:59:00.273Z,4.42
2018-12-10T02:01:27.607Z,4.17
2018-12-10T02:03:54.951Z,2.85
2018-12-10T02:06:22.668Z,2.98
2018-12-10T02:08:50.031Z,2.00
2018-12-10T02:11:17.343Z,3.52
2018-12-10T02:13:44.703Z,2.20
2018-12-10T02:16:11.921Z,4.37
2018-12-10T02:18:39.263Z,4.83
2018-12-10T02:21:06.669Z,2.15
2018-12-10T02:23:34.014Z,1.77
2018-12-10T02:26:01.371Z,1.70
2018-12-10T02:28:34.198Z,2.42
2018-12-10T02:31:01.532Z,5.20
2018-12-10T02:33:28.856Z,2.55
2018-12-10T02:35:56.171Z,1.77
2018-12-10T02:38:23.536Z,2.85
2018-12-10T02:40:50.842Z,2.08
2018-12-10T02:43:18.214Z,2.50
2018-12-10T02:45:45.572Z,8.98
2018-12-10T02:48:12.930Z,3.45
2018-12-10T02:50:40.240Z,2.52
2018-12-10T02:53:07.589Z,2.77
2018-12-10T02:55:34.822Z,2.87
2018-12-10T02:58:02.160Z,5.25
2018-12-10T03:00:29.514Z,5.78
2018-12-10T03:02:56.842Z,2.72
2018-12-10T03:05:24.194Z,2.35
2018-12-10T03:07:51.436Z,3.85
2018-12-10T03:10:19.191Z,2.98
2018-12-10T03:12:46.495Z,8.23
2018-12-10T03:15:13.832Z,3.62
2018-12-10T03:17:41.093Z,6.00
2018-12-10T03:20:08.419Z,3.10
2018-12-10T03:22:35.688Z,3.52
2018-12-10T03:25:03.185Z,7.33
2018-12-10T03:27:30.518Z,2.35
2018-12-10T03:29:57.844Z,3.08
2018-12-10T03:32:25.318Z,4.83
2018-12-10T03:34:52.783Z,1.95
2018-12-10T03:37:20.108Z,2.42
2018-12-10T03:39:47.449Z,7.40
2018-12-10T03:42:14.781Z,7.47
2018-12-10T03:44:42.120Z,2.52
2018-12-10T03:47:09.428Z,2.58
2018-12-10T03:49:36.756Z,5.33
2018-12-10T03:52:04.079Z,4.17
2018-12-10T03:54:31.412Z,3.47
2018-12-10T03:56:58.755Z,3.85
2018-12-10T03:59:26.070Z,6.15
2018-12-10T04:01:53.419Z,5.60
2018-12-10T04:04:20.756Z,2.10
2018-12-10T04:06:48.088Z,6.03
2018-12-10T04:09:15.431Z,5.70
2018-12-10T04:11:42.779Z,4.78
2018-12-10T04:14:10.082Z,8.80
2018-12-10T04:16:37.351Z,13.40
2018-12-10T04:19:04.706Z,4.10
2018-12-10T04:21:32.041Z,7.20
2018-12-10T04:23:59.371Z,4.47
2018-12-10T04:26:26.689Z,2.05
2018-12-10T04:28:54.055Z,7.25
2018-12-10T04:31:21.381Z,2.92
2018-12-10T04:33:48.715Z,8.93
2018-12-10T04:36:15.968Z,1.77
2018-12-10T04:38:43.339Z,3.50
2018-12-10T04:41:10.723Z,4.00
2018-12-10T04:43:38.097Z,1.57
2018-12-10T04:46:05.426Z,1.80
2018-12-10T04:48:32.748Z,1.35
2018-12-10T04:51:00.099Z,1.90
2018-12-10T04:53:27.409Z,1.70
2018-12-10T04:55:54.789Z,2.55
2018-12-10T04:58:22.107Z,1.30
2018-12-10T05:00:49.559Z,3.15
2018-12-10T05:03:20.644Z,2.02
2018-12-10T05:05:47.998Z,1.30
2018-12-10T05:08:15.351Z,2.08
2018-12-10T05:10:42.695Z,4.28
2018-12-10T05:13:10.086Z,1.47
2018-12-10T05:15:37.416Z,3.25
2018-12-10T05:18:04.880Z,1.75
2018-12-10T05:20:32.221Z,4.37
2018-12-10T05:22:59.573Z,1.72
2018-12-10T05:25:26.891Z,1.30
2018-12-10T05:27:54.205Z,1.60
2018-12-10T05:30:21.681Z,3.75
2018-12-10T05:32:48.993Z,1.57
2018-12-10T05:35:16.341Z,1.37
2018-12-10T05:37:43.669Z,2.05
2018-12-10T05:40:11.031Z,1.25
2018-12-10T05:42:38.293Z,0.90
2018-12-10T05:45:07.025Z,1.20
2018-12-10T05:47:34.338Z,0.98
2018-12-10T05:50:01.671Z,1.05
2018-12-10T05:52:29.007Z,0.82
2018-12-10T05:54:56.315Z,0.98
2018-12-10T05:57:23.671Z,1.35
2018-12-10T05:59:50.977Z,0.80
2018-12-10T06:02:18.331Z,0.90
2018-12-10T06:04:45.646Z,0.80
2018-12-10T06:07:13.011Z,0.90
2018-12-10T06:09:40.276Z,0.82
2018-12-10T06:12:07.909Z,1.20
2018-12-10T06:14:35.118Z,0.93
2018-12-10T06:17:02.522Z,1.10
2018-12-10T06:19:29.976Z,1.20
2018-12-10T06:21:57.317Z,2.15
2018-12-10T06:24:24.656Z,1.05
2018-12-10T06:26:52.192Z,3.62
2018-12-10T06:29:19.484Z,1.47
2018-12-10T06:31:46.822Z,2.10
2018-12-10T06:34:17.020Z,2.55
2018-12-10T06:36:44.392Z,0.95
2018-12-10T06:39:11.713Z,1.85
2018-12-10T06:41:39.123Z,0.72
2018-12-10T06:44:06.448Z,2.10
2018-12-10T06:46:33.786Z,2.45
2018-12-10T06:49:01.111Z,1.37
2018-12-10T06:51:28.479Z,2.67
2018-12-10T06:53:55.812Z,1.77
2018-12-10T06:56:23.273Z,1.72
2018-12-10T06:58:50.839Z,2.15
2018-12-10T07:01:18.465Z,1.60
2018-12-10T07:03:50.458Z,1.47
2018-12-10T07:06:17.811Z,7.72
2018-12-10T07:08:45.085Z,1.40
2018-12-10T07:11:12.447Z,4.97
2018-12-10T07:13:39.991Z,1.07
2018-12-10T07:16:07.364Z,2.52
2018-12-10T07:18:34.751Z,1.40
2018-12-10T07:21:02.115Z,2.62
2018-12-10T07:23:29.454Z,2.85
2018-12-10T07:25:56.779Z,1.85
2018-12-10T07:28:24.123Z,2.27
2018-12-10T07:30:51.455Z,2.22
2018-12-10T07:33:18.839Z,2.72
2018-12-10T07:35:46.176Z,3.02
2018-12-10T07:38:13.533Z,1.65
2018-12-10T07:40:40.907Z,2.30
2018-12-10T07:43:08.255Z,2.47
2018-12-10T07:45:35.601Z,2.30
2018-12-10T07:48:03.308Z,2.33
2018-12-10T07:50:31.352Z,2.25
2018-12-10T07:52:58.856Z,1.98
2018-12-10T07:55:32.464Z,2.15
2018-12-10T07:58:00.020Z,2.00
2018-12-10T08:00:27.357Z,3.20
2018-12-10T08:02:54.706Z,2.75
2018-12-10T08:05:22.050Z,4.50
2018-12-10T08:07:49.276Z,2.75
2018-12-10T08:10:16.669Z,3.85
2018-12-10T08:12:44.044Z,2.40
2018-12-10T08:15:11.498Z,2.52
2018-12-10T08:17:38.753Z,2.52
2018-12-10T08:20:06.179Z,2.25
2018-12-10T08:22:33.568Z,3.30
2018-12-10T08:25:00.901Z,2.37
2018-12-10T08:27:28.328Z,2.37
2018-12-10T08:29:55.751Z,2.90
2018-12-10T08:32:23.033Z,2.58
2018-12-10T08:34:50.396Z,4.65
2018-12-10T08:37:17.710Z,4.10
2018-12-10T08:39:44.989Z,4.40
2018-12-10T08:42:12.347Z,7.78
2018-12-10T08:44:39.665Z,2.30
2018-12-10T08:47:07.345Z,5.22
2018-12-10T08:49:34.987Z,2.80
2018-12-10T08:52:02.228Z,1.95
2018-12-10T08:54:29.587Z,2.47
2018-12-10T08:56:56.993Z,3.77
2018-12-10T08:59:24.404Z,2.70
2018-12-10T09:01:51.752Z,2.20
2018-12-10T09:04:19.122Z,4.80
2018-12-10T09:06:46.471Z,9.43
2018-12-10T09:09:13.710Z,3.20
2018-12-10T09:11:41.092Z,5.70
2018-12-10T09:14:08.462Z,6.67
2018-12-10T09:16:35.832Z,4.90
2018-12-10T09:19:03.331Z,4.10
2018-12-10T09:21:30.690Z,5.15
2018-12-10T09:23:58.063Z,4.28
2018-12-10T09:26:25.427Z,2.72
2018-12-10T09:28:52.781Z,5.25
2018-12-10T09:31:20.134Z,4.83
2018-12-10T09:33:47.396Z,2.42
2018-12-10T09:36:14.756Z,2.85
2018-12-10T09:38:42.068Z,2.65
2018-12-10T09:41:09.429Z,4.37
2018-12-10T09:43:36.785Z,3.08
2018-12-10T09:46:04.073Z,11.30
2018-12-10T09:48:31.428Z,2.70
2018-12-10T09:50:58.762Z,6.05
2018-12-10T09:53:26.043Z,5.33
2018-12-10T09:55:54.226Z,4.53
2018-12-10T09:58:21.597Z,4.75
2018-12-10T10:00:49.173Z,3.80
2018-12-10T10:03:16.502Z,4.78
2018-12-10T10:05:43.846Z,3.20
2018-12-10T10:08:11.179Z,5.30
2018-12-10T10:10:42.744Z,2.77
2018-12-10T10:13:12.621Z,3.37
2018-12-10T10:15:40.072Z,3.12
2018-12-10T10:18:07.452Z,7.55
2018-12-10T10:20:34.720Z,8.48
2018-12-10T10:23:02.156Z,12.13
2018-12-10T10:25:29.541Z,5.05
2018-12-10T10:27:56.932Z,6.78
2018-12-10T10:30:24.284Z,3.27
2018-12-10T10:32:51.534Z,6.45
2018-12-10T10:35:18.906Z,16.57
2018-12-10T10:37:46.243Z,7.00
2018-12-10T10:40:13.619Z,3.45
2018-12-10T10:42:40.950Z,7.08
2018-12-10T10:45:08.541Z,8.03
2018-12-10T10:47:35.843Z,5.95
2018-12-10T10:50:03.460Z,6.35
2018-12-10T10:52:33.383Z,10.53
2018-12-10T10:55:00.342Z,11.35
2018-12-10T10:57:27.707Z,7.33
2018-12-10T10:59:55.079Z,8.35
2018-12-10T11:02:28.211Z,10.45
2018-12-10T11:04:55.558Z,6.60
2018-12-10T11:07:22.811Z,6.95
2018-12-10T11:09:50.209Z,6.40
2018-12-10T11:12:17.544Z,7.00
2018-12-10T11:14:44.967Z,8.83
2018-12-10T11:17:12.323Z,6.80
2018-12-10T11:19:39.697Z,6.40
2018-12-10T11:22:07.193Z,4.83
2018-12-10T11:24:34.561Z,4.53
2018-12-10T11:27:01.913Z,3.98
2018-12-10T11:29:29.496Z,11.85
2018-12-10T11:31:56.935Z,4.50
2018-12-10T11:34:24.333Z,6.78
2018-12-10T11:36:51.684Z,13.70
2018-12-10T11:39:18.921Z,14.35
2018-12-10T11:41:46.698Z,5.03
2018-12-10T11:44:14.214Z,9.50
2018-12-10T11:46:41.502Z,8.50
2018-12-10T11:49:09.694Z,6.22
2018-12-10T11:51:37.138Z,5.12
2018-12-10T11:54:04.626Z,9.68
2018-12-10T11:56:32.211Z,8.30
2018-12-10T11:59:01.575Z,9.10
2018-12-10T12:01:29.143Z,6.58
2018-12-10T12:03:56.520Z,3.25
2018-12-10T12:06:23.864Z,10.05
2018-12-10T12:08:51.327Z,5.90
2018-12-10T12:11:18.858Z,6.37
2018-12-10T12:13:46.192Z,3.00
2018-12-10T12:16:13.845Z,8.55
2018-12-10T12:18:41.792Z,3.00
2018-12-10T12:21:09.209Z,7.33
2018-12-10T12:23:36.452Z,7.50
2018-12-10T12:26:03.814Z,9.70
2018-12-10T12:28:31.144Z,12.93
2018-12-10T12:30:58.497Z,6.53
2018-12-10T12:33:25.865Z,14.07
2018-12-10T12:35:53.210Z,7.15
2018-12-10T12:38:20.591Z,5.45
2018-12-10T12:40:48.108Z,7.75
2018-12-10T12:43:16.114Z,8.10
2018-12-10T12:45:43.797Z,16.82
2018-12-10T12:48:11.170Z,14.15
2018-12-10T12:50:38.643Z,7.28
2018-12-10T12:53:05.984Z,4.65
2018-12-10T12:55:33.356Z,6.28
2018-12-10T12:58:00.702Z,5.40
2018-12-10T13:00:28.074Z,6.40
2018-12-10T13:02:55.417Z,8.23
2018-12-10T13:05:22.945Z,5.78
2018-12-10T13:07:50.216Z,6.85
2018-12-10T13:10:17.623Z,5.62
2018-12-10T13:12:45.413Z,6.20
2018-12-10T13:15:12.651Z,5.92
2018-12-10T13:17:39.945Z,8.83
2018-12-10T13:20:07.315Z,6.03
2018-12-10T13:22:34.679Z,7.55
2018-12-10T13:25:02.057Z,16.67
2018-12-10T13:27:29.311Z,12.23
2018-12-10T13:29:56.689Z,11.97
2018-12-10T13:32:24.033Z,5.15
2018-12-10T13:34:51.385Z,8.40
2018-12-10T13:37:18.631Z,4.67
2018-12-10T13:39:46.016Z,5.67
2018-12-10T13:42:13.395Z,5.28
2018-12-10T13:44:40.731Z,10.48
2018-12-10T13:47:08.093Z,9.50
2018-12-10T13:49:35.487Z,6.75
2018-12-10T13:52:02.859Z,7.37
2018-12-10T13:54:30.223Z,14.18
2018-12-10T13:56:57.565Z,5.95
2018-12-10T13:59:24.970Z,6.40
2018-12-10T14:01:52.365Z,4.80
2018-12-10T14:04:24.581Z,6.40
2018-12-10T14:06:52.041Z,6.67
2018-12-10T14:09:19.386Z,7.92
2018-12-10T14:11:47.347Z,9.20
2018-12-10T14:14:14.844Z,10.18
2018-12-10T14:16:42.163Z,11.70
2018-12-10T14:19:09.540Z,5.58
2018-12-10T14:21:36.924Z,5.28
2018-12-10T14:24:04.280Z,10.30
2018-12-10T14:26:31.690Z,7.70
2018-12-10T14:28:59.038Z,6.55
2018-12-10T14:31:27.447Z,11.28
2018-12-10T14:33:57.022Z,8.88
2018-12-10T14:36:24.402Z,5.78
2018-12-10T14:38:51.772Z,8.38
2018-12-10T14:41:19.204Z,10.78
2018-12-10T14:43:46.654Z,7.22
2018-12-10T14:46:15.506Z,7.45
2018-12-10T14:48:43.420Z,8.50
2018-12-10T14:51:10.825Z,10.70
2018-12-10T14:53:38.191Z,10.23
2018-12-10T14:56:07.484Z,10.35
2018-12-10T14:58:36.055Z,6.85
2018-12-10T15:01:04.270Z,16.97
2018-12-10T15:03:33.344Z,7.28
2018-12-10T15:06:01.620Z,7.08
2018-12-10T15:08:31.316Z,8.95
2018-12-10T15:10:59.816Z,8.23
2018-12-10T15:13:27.127Z,7.25
2018-12-10T15:15:54.540Z,10.15
2018-12-10T15:18:21.906Z,9.53
2018-12-10T15:20:49.275Z,10.70
2018-12-10T15:23:16.673Z,11.10
2018-12-10T15:25:44.069Z,12.65
2018-12-10T15:28:13.102Z,10.48
2018-12-10T15:30:40.460Z,10.63
2018-12-10T15:33:07.949Z,12.18
2018-12-10T15:35:35.402Z,8.90
2018-12-10T15:38:02.883Z,11.12
2018-12-10T15:40:30.312Z,7.33
2018-12-10T15:42:57.677Z,7.85
2018-12-10T15:45:25.079Z,12.23
2018-12-10T15:47:52.390Z,11.95
2018-12-10T15:50:19.762Z,7.50
2018-12-10T15:52:47.169Z,6.55
2018-12-10T15:55:14.888Z,6.65
2018-12-10T15:57:42.294Z,11.90
2018-12-10T16:00:10.293Z,15.23
2018-12-10T16:02:37.572Z,6.15
2018-12-10T16:05:05.257Z,8.20
2018-12-10T16:07:32.651Z,8.85
2018-12-10T16:10:00.040Z,9.05
2018-12-10T16:12:27.335Z,7.87
2018-12-10T16:14:54.690Z,9.65
2018-12-10T16:17:22.108Z,10.78
2018-12-10T16:19:49.467Z,7.47
2018-12-10T16:22:17.232Z,8.90
2018-12-10T16:24:44.634Z,8.48
2018-12-10T16:27:13.692Z,9.60
2018-12-10T16:29:41.476Z,13.55
2018-12-10T16:32:10.200Z,9.95
2018-12-10T16:34:44.134Z,8.90
2018-12-10T16:37:14.231Z,14.25
2018-12-10T16:39:43.869Z,10.95
2018-12-10T16:42:15.278Z,12.60
2018-12-10T16:44:47.809Z,11.53
2018-12-10T16:47:16.295Z,9.65
2018-12-10T16:49:43.678Z,10.10
2018-12-10T16:52:11.088Z,10.30
2018-12-10T16:54:38.508Z,10.23
2018-12-10T16:57:05.943Z,12.98
2018-12-10T16:59:33.296Z,10.00
2018-12-10T17:02:00.713Z,13.20
2018-12-10T17:04:28.140Z,11.63
2018-12-10T17:06:55.609Z,15.32
2018-12-10T17:09:23.380Z,14.45
2018-12-10T17:11:50.782Z,10.43
2018-12-10T17:14:18.418Z,12.58
2018-12-10T17:16:45.880Z,17.55
2018-12-10T17:19:13.187Z,10.10
2018-12-10T17:21:40.728Z,8.05
2018-12-10T17:24:08.064Z,12.00
2018-12-10T17:26:35.445Z,13.53
2018-12-10T17:29:02.876Z,12.10
2018-12-10T17:31:30.351Z,10.05
2018-12-10T17:33:57.713Z,10.68
2018-12-10T17:36:25.142Z,11.60
2018-12-10T17:38:52.563Z,10.85
2018-12-10T17:41:19.997Z,18.73
2018-12-10T17:43:47.500Z,14.55
2018-12-10T17:46:14.970Z,16.77
2018-12-10T17:48:42.990Z,12.82
2018-12-10T17:51:11.002Z,14.38
2018-12-10T17:53:38.542Z,12.80
2018-12-10T17:56:06.122Z,13.70
2018-12-10T17:58:33.527Z,12.80
2018-12-10T18:01:01.087Z,12.60
2018-12-10T18:03:28.526Z,14.13
2018-12-10T18:05:56.017Z,10.03
2018-12-10T18:08:23.435Z,13.08
2018-12-10T18:10:50.940Z,11.48
2018-12-10T18:13:18.427Z,10.93
2018-12-10T18:15:45.821Z,10.98
2018-12-10T18:18:14.157Z,11.75
2018-12-10T18:20:41.657Z,14.60
2018-12-10T18:23:09.189Z,14.30
2018-12-10T18:25:36.720Z,11.73
2018-12-10T18:28:04.562Z,12.90
2018-12-10T18:30:32.188Z,10.88
2018-12-10T18:32:59.617Z,11.35
2018-12-10T18:35:27.008Z,14.00
2018-12-10T18:37:55.124Z,14.05
2018-12-10T18:40:22.970Z,17.25
2018-12-10T18:42:51.361Z,10.98
2018-12-10T18:45:18.881Z,7.97
2018-12-10T18:47:46.432Z,12.18
2018-12-10T18:50:13.942Z,10.30
2018-12-10T18:52:41.747Z,9.95
2018-12-10T18:55:09.268Z,10.10
2018-12-10T18:57:37.074Z,8.53
2018-12-10T19:00:09.005Z,8.43
2018-12-10T19:02:36.417Z,12.73
2018-12-10T19:05:04.342Z,12.63
2018-12-10T19:07:32.902Z,11.93
2018-12-10T19:10:00.450Z,16.57
2018-12-10T19:12:28.343Z,15.00
2018-12-10T19:14:56.548Z,7.87
2018-12-10T19:17:24.752Z,15.83
2018-12-10T19:19:52.968Z,6.42
2018-12-10T19:22:20.775Z,9.98
2018-12-10T19:24:48.469Z,8.60
2018-12-10T19:27:16.698Z,6.05
2018-12-10T19:29:44.391Z,7.20
2018-12-10T19:32:13.473Z,6.45
2018-12-10T19:34:41.836Z,8.85
2018-12-10T19:37:09.673Z,7.87
2018-12-10T19:39:38.385Z,8.85
2018-12-10T19:42:06.158Z,6.20
2018-12-10T19:44:34.652Z,10.40
2018-12-10T19:47:04.437Z,8.10
2018-12-10T19:49:32.664Z,9.60
2018-12-10T19:52:04.458Z,9.25
2018-12-10T19:54:35.608Z,7.72
2018-12-10T19:57:05.534Z,12.25
2018-12-10T19:59:34.511Z,8.60
2018-12-10T20:02:02.765Z,14.93
2018-12-10T20:04:31.405Z,11.05
2018-12-10T20:07:06.366Z,7.35
2018-12-10T20:09:34.901Z,10.88
2018-12-10T20:12:02.773Z,6.03
2018-12-10T20:14:31.461Z,9.48
2018-12-10T20:16:59.443Z,9.73
2018-12-10T20:19:27.278Z,7.87
2018-12-10T20:21:55.267Z,7.10
2018-12-10T20:24:22.776Z,8.78
2018-12-10T20:26:51.445Z,8.48
2018-12-10T20:29:19.089Z,13.58
2018-12-10T20:31:47.387Z,13.22
2018-12-10T20:34:15.030Z,8.90
2018-12-10T20:36:44.847Z,11.38
2018-12-10T20:39:12.426Z,8.13
2018-12-10T20:41:40.308Z,5.55
2018-12-10T20:44:09.965Z,9.30
2018-12-10T20:46:37.503Z,9.85
2018-12-10T20:49:05.042Z,8.78
2018-12-10T20:51:32.506Z,8.13
2018-12-10T20:53:59.953Z,14.85
2018-12-10T20:56:27.392Z,8.28
2018-12-10T20:58:55.508Z,12.45
2018-12-10T21:01:22.969Z,20.80
2018-12-10T21:03:50.503Z,17.75
2018-12-10T21:06:49.030Z,9.78
2018-12-10T21:09:16.509Z,8.25
2018-12-10T21:11:43.997Z,14.58
2018-12-10T21:14:11.379Z,9.88
2018-12-10T21:16:38.850Z,7.78
2018-12-10T21:19:06.260Z,8.78
2018-12-10T21:21:33.725Z,46.37
2018-12-10T21:24:01.217Z,14.75
2018-12-10T21:26:28.580Z,15.03
2018-12-10T21:28:55.994Z,12.95
2018-12-10T21:31:23.469Z,8.30
2018-12-10T21:33:50.943Z,7.42
2018-12-10T21:36:18.518Z,6.12
2018-12-10T21:38:45.981Z,6.17
2018-12-10T21:41:13.406Z,9.33
2018-12-10T21:43:40.956Z,9.98
2018-12-10T21:46:08.333Z,6.60
2018-12-10T21:48:35.776Z,7.10
2018-12-10T21:51:03.596Z,5.95
2018-12-10T21:53:31.023Z,8.80
2018-12-10T21:55:58.559Z,5.08
2018-12-10T21:58:25.963Z,6.47
2018-12-10T22:00:53.388Z,7.95
2018-12-10T22:03:21.000Z,8.53
2018-12-10T22:05:48.383Z,10.10
2018-12-10T22:08:15.897Z,6.70
2018-12-10T22:10:43.267Z,5.80
2018-12-10T22:13:10.619Z,6.40
2018-12-10T22:15:38.029Z,4.42
2018-12-10T22:18:05.401Z,8.80
2018-12-10T22:20:32.758Z,5.95
2018-12-10T22:23:00.254Z,7.65
2018-12-10T22:25:27.603Z,6.12
2018-12-10T22:27:55.007Z,5.40
2018-12-10T22:30:22.349Z,4.80
2018-12-10T22:32:49.717Z,6.42
2018-12-10T22:35:17.056Z,7.65
2018-12-10T22:37:44.406Z,9.28
2018-12-10T22:40:11.762Z,5.97
2018-12-10T22:42:39.116Z,7.97
2018-12-10T22:45:06.535Z,13.22
2018-12-10T22:47:33.933Z,7.15
2018-12-10T22:50:01.285Z,4.87
2018-12-10T22:52:28.643Z,7.90
2018-12-10T22:54:55.956Z,8.48
2018-12-10T22:57:23.275Z,6.95
2018-12-10T22:59:50.573Z,5.97
2018-12-10T23:02:17.947Z,8.25
2018-12-10T23:04:45.265Z,8.15
2018-12-10T23:07:12.590Z,7.15
2018-12-10T23:09:40.633Z,6.70
2018-12-10T23:12:07.959Z,8.45
2018-12-10T23:14:35.326Z,12.60
2018-12-10T23:17:02.932Z,9.18
2018-12-10T23:19:30.305Z,9.10
2018-12-10T23:21:57.622Z,10.15
2018-12-10T23:24:24.952Z,11.25
2018-12-10T23:26:52.310Z,9.00
2018-12-10T23:29:19.660Z,8.63
2018-12-10T23:31:47.004Z,9.45
2018-12-10T23:34:14.362Z,12.80
2018-12-10T23:36:41.710Z,8.65
2018-12-10T23:39:09.041Z,9.85
2018-12-10T23:41:36.398Z,7.53
2018-12-10T23:44:03.759Z,7.08
2018-12-10T23:46:31.204Z,11.38
2018-12-10T23:48:58.532Z,16.42
2018-12-10T23:51:25.906Z,9.38
2018-12-10T23:53:53.303Z,12.20
2018-12-10T23:56:20.676Z,11.28
2018-12-10T23:58:47.983Z,10.43
